Aérodrome :
LOGIN :

S'inscrire | Disclaimer

   EN    FR    IT 

 










Légende :    VFR   VFR Marginal   IFR   IFR Intensif   IFR Très Intensif
Visi : 
Plafond : 
>= 8 km
>= 3000ft
5 à 8 km
1000 à 3000 ft
1500m à 5 km
500 à 1000 ft
800 à 1500m
200 à 500 ft
< 800m
< 200 ft
Symboles :   Orages  Brouillard  Fortes neiges  Fortes précipitations  Vent > 20 kt
SIGMETs :   Divers  Orages  Givrage  Turbulence  Onde Orograph.  Cendres Volcan.






- Altitude de l'aérodrome : 238 ft
- Code IATA : FAB


EGLF - Farnborough

DERNIER METAR :
  • 181350Z AUTO 23012KT 210V270 9999 FEW048/// 13/01 Q1022

METARs EXPIRÉS :
  • 181320Z AUTO 25009KT 210V290 9999 NCD 13/01 Q1023
  • 181250Z AUTO 28009KT 230V320 9999 SCT044/// 12/01 Q1023
  • 181220Z AUTO 31006KT 220V350 9999 FEW043/// 12/01 Q1023
  • 181150Z AUTO VRB06KT 9999 SCT041/// 12/01 Q1023
  • 181120Z AUTO VRB06KT 9999 BKN039/// 12/02 Q1024
  • 181050Z AUTO 29006KT 230V350 9999 FEW036/// 11/02 Q1024
  • 181020Z AUTO VRB06KT 9999 BKN032/// 10/02 Q1024
  • 180950Z AUTO 30005KT 260V360 9999 SCT029/// 09/02 Q1024
  • 180920Z AUTO VRB03KT 9999 BKN026/// 09/02 Q1024

TAF TAF EGLF
Valide du 18 à 12h jusqu'au 18 à 21h UTC


181104Z 1812/1821 VRB04KT 9999 SCT025
BECMG 1812/1815 27010KT
ATIS : +44 09063 800 400 (*282)



MET'MAP, la Météo Aéronautique d'un coup d'oeil ! - Copyright ORBIFLY Décembre 2007 - Disclaimer

ORBIFLY MET'MAP TEAM :

Programmation & Développement : Alexandra Zaïnal
Sur une idée originale de : Baudouin d'Aumeries
Soutien technique & logistique : Manuel Goepfert
Assistance : Marc-Olivier Méhu




SOURCES & CREDITS :

   NOAA